WetterOnline ( https://www.wetteronline.de )

Wetter aktuell Eberswalde

Aktuelles Wetter: Angermünde (55m)

6-stündlich | Neueste Meldungen
Ortszeit Temperatur Wetter
Mi, 22.01. 7:00 3.6° C bedeckt
Mi, 22.01. 1:00 3.1° C bedeckt
Di, 21.01. 19:00 0.7° C wolkig
Di, 21.01. 13:00 5.5° C wolkenlos
Di, 21.01. 7:00 1.8° C wolkenlos
Di, 21.01. 1:00 2.7° C bewölkt
Mo, 20.01. 19:00 2.4° C bedeckt
Mo, 20.01. 13:00 1.6° C bedeckt
Ortszeit Temperatur Wetter
Mi, 22.01. 8:30 3.8° C bewölkt
Mi, 22.01. 8:20 3.8° C bewölkt
Mi, 22.01. 8:10 3.8° C bewölkt
Mi, 22.01. 8:00 3.8° C bewölkt
Mi, 22.01. 7:50 3.8° C bewölkt
Mi, 22.01. 7:40 3.7° C bewölkt
Mi, 22.01. 7:30 3.7° C bewölkt
Mi, 22.01. 7:00 3.6° C bedeckt
Ortszeit Relative Feuchte Sichtweite
Mi, 22.01. 7:00 94% 3.4 km
Mi, 22.01. 1:00 85% 10 km
Di, 21.01. 19:00 87% 9 km
Di, 21.01. 13:00 65% 35 km
Di, 21.01. 7:00 87% 20 km
Di, 21.01. 1:00 91% 11 km
Mo, 20.01. 19:00 94% 11 km
Mo, 20.01. 13:00 94% 13 km
Ortszeit Relative Feuchte Sichtweite
Mi, 22.01. 8:30 95% 4.6 km
Mi, 22.01. 8:20 95% -
Mi, 22.01. 8:10 94% -
Mi, 22.01. 8:00 94% 5.0 km
Mi, 22.01. 7:50 94% -
Mi, 22.01. 7:40 94% -
Mi, 22.01. 7:30 94% 5.0 km
Mi, 22.01. 7:00 94% 3.4 km
Ortszeit Niederschlagsmenge Niederschlagsart
Mi, 22.01. 7:00 0.0 l/m2 in 12 Std. -
Mi, 22.01. 1:00 0.0 l/m2 in 6 Std. -
Di, 21.01. 19:00 0.0 l/m2 in 12 Std. -
Di, 21.01. 13:00 0.0 l/m2 in 6 Std. -
Di, 21.01. 7:00 0.0 l/m2 in 12 Std. -
Di, 21.01. 1:00 0.0 l/m2 in 6 Std. -
Mo, 20.01. 19:00 0.0 l/m2 in 12 Std. -
Mo, 20.01. 13:00 0.0 l/m2 in 6 Std. -
Ortszeit Niederschlagsmenge Niederschlagsart
Mi, 22.01. 8:30 0.0 l/m2 in 1 Std. -
Mi, 22.01. 8:20 keine Meldung -
Mi, 22.01. 8:10 keine Meldung -
Mi, 22.01. 8:00 0.0 l/m2 in 1 Std. -
Mi, 22.01. 7:50 keine Meldung -
Mi, 22.01. 7:40 keine Meldung -
Mi, 22.01. 7:30 0.0 l/m2 in 1 Std. -
Mi, 22.01. 7:00 0.0 l/m2 in 1 Std. -
Ortszeit Stärke Spitze Richtung
km/h Bft. km/h Grad Sektor
Mi, 22.01. 7:00 22 4 40 270° W
Mi, 22.01. 1:00 24 4 33 250° W
Di, 21.01. 19:00 9 2 35 260° W
Di, 21.01. 13:00 22 4 37 270° W
Di, 21.01. 7:00 20 4 37 240° SW
Di, 21.01. 1:00 13 3 31 240° SW
Mo, 20.01. 19:00 14 3 29 250° W
Mo, 20.01. 13:00 14 3 25 260° W
Ortszeit Stärke Spitze Richtung
km/h Bft. km/h Grad Sektor
Mi, 22.01. 8:30 22 4 32 260° W
Mi, 22.01. 8:20 22 4 - 260° W
Mi, 22.01. 8:10 24 4 - 260° W
Mi, 22.01. 8:00 22 4 32 270° W
Mi, 22.01. 7:50 22 4 - 270° W
Mi, 22.01. 7:40 22 4 - 270° W
Mi, 22.01. 7:30 22 4 31 260° W
Mi, 22.01. 7:00 22 4 36 270° W
Ortszeit Untergrenze Bedeckung Gattung
total tief tief mittel hoch
Mi, 22.01. 7:00 150 m 8/8 8/8 - - -
Mi, 22.01. 1:00 270 m 8/8 8/8 - - -
Di, 21.01. 19:00 7800 m 8/8 0/8 - - -
Di, 21.01. 13:00 - 0/8 0/8 - - -
Di, 21.01. 7:00 - 0/8 0/8 - - -
Di, 21.01. 1:00 180 m 7/8 7/8 - - -
Mo, 20.01. 19:00 90 m 8/8 8/8 - - -
Mo, 20.01. 13:00 90 m 8/8 8/8 - - -
Ortszeit Bedeckungsgrad in Achtel und Wolkenuntergrenze
Mi, 22.01. 8:30 7(120m)
Mi, 22.01. 8:20 7(120m)
Mi, 22.01. 8:10 7(150m)
Mi, 22.01. 8:00 7(150m)
Mi, 22.01. 7:50 7(150m)
Mi, 22.01. 7:40 7(150m)
Mi, 22.01. 7:30 7(150m) 7(240m)
Mi, 22.01. 7:00 8(150m)
Ortszeit Luftdruck NN (hPa) Tendenz (hPa in 3 Std.)
Mi, 22.01. 7:00 1029 - 1,5
Mi, 22.01. 1:00 1032 - 2,5
Di, 21.01. 19:00 1036 - 0,5
Di, 21.01. 13:00 1038 - 0,8
Di, 21.01. 7:00 1040 - 1,2
Di, 21.01. 1:00 1043 - 1,5
Mo, 20.01. 19:00 1045 - 0,8
Mo, 20.01. 13:00 1046 + 0,5
Ortszeit Luftdruck NN (hPa) Tendenz (hPa in 3 Std.)
Mi, 22.01. 8:30 1029 - 0,6
Mi, 22.01. 8:20 1029 keine Meldung
Mi, 22.01. 8:10 1029 keine Meldung
Mi, 22.01. 8:00 1029 - 0,5
Mi, 22.01. 7:50 1029 keine Meldung
Mi, 22.01. 7:40 1029 keine Meldung
Mi, 22.01. 7:30 1029 - 0,5
Mi, 22.01. 7:00 1029 - 1,5
Ortszeit Schneehöhe (cm)
Mi, 22.01. 7:00 0
Mi, 22.01. 1:00 0
Di, 21.01. 19:00 0
Di, 21.01. 13:00 0
Di, 21.01. 7:00 0
Di, 21.01. 1:00 0
Mo, 20.01. 19:00 0
Mo, 20.01. 13:00 0
Ortszeit Schneehöhe (cm)
Mi, 22.01. 8:30 0
Mi, 22.01. 8:20 0
Mi, 22.01. 8:10 0
Mi, 22.01. 8:00 0
Mi, 22.01. 7:50 0
Mi, 22.01. 7:40 0
Mi, 22.01. 7:30 0
Mi, 22.01. 7:00 0
Link zu dieser Seite / Seite empfehlen

Das Wetter in ...